createdAt,value
2018-04-10T00:00:19.160Z,86.43
2018-04-10T00:01:19.271Z,86.61
2018-04-10T00:03:12.502Z,86.57
2018-04-10T00:04:12.384Z,86.47
2018-04-10T00:06:05.347Z,86.38
2018-04-10T00:07:05.340Z,86.61
2018-04-10T00:08:58.266Z,87.00
2018-04-10T00:09:58.243Z,86.80
2018-04-10T00:11:51.362Z,86.23
2018-04-10T00:12:51.286Z,87.19
2018-04-10T00:14:44.237Z,86.52
2018-04-10T00:15:44.191Z,86.23
2018-04-10T00:17:37.032Z,86.04
2018-04-10T00:18:36.971Z,86.04
2018-04-10T00:20:29.810Z,86.23
2018-04-10T00:21:29.726Z,86.04
2018-04-10T00:23:22.651Z,86.43
2018-04-10T00:24:22.617Z,86.23
2018-04-10T00:26:15.573Z,86.23
2018-04-10T00:27:15.523Z,86.33
2018-04-10T00:29:08.515Z,85.85
2018-04-10T00:30:08.457Z,85.85
2018-04-10T00:32:01.752Z,85.94
2018-04-10T00:33:01.562Z,86.04
2018-04-10T00:34:54.527Z,85.28
2018-04-10T00:35:54.462Z,85.47
2018-04-10T00:37:47.436Z,85.47
2018-04-10T00:38:47.381Z,85.57
2018-04-10T00:40:40.201Z,85.57
2018-04-10T00:41:40.164Z,85.75
2018-04-10T00:43:33.177Z,85.75
2018-04-10T00:44:33.131Z,85.75
2018-04-10T00:46:26.098Z,85.57
2018-04-10T00:47:26.097Z,85.75
2018-04-10T00:49:19.014Z,85.57
2018-04-10T00:50:18.977Z,85.85
2018-04-10T00:52:11.811Z,85.28
2018-04-10T00:53:11.792Z,85.38
2018-04-10T00:55:04.726Z,85.47
2018-04-10T00:56:04.674Z,86.14
2018-04-10T00:57:57.651Z,85.57
2018-04-10T00:58:57.653Z,85.85
2018-04-10T01:00:50.433Z,85.75
2018-04-10T01:01:50.387Z,85.75
2018-04-10T01:03:43.267Z,85.75
2018-04-10T01:04:43.214Z,85.85
2018-04-10T01:06:36.187Z,86.04
2018-04-10T01:07:36.156Z,86.04
2018-04-10T01:09:29.000Z,85.75
2018-04-10T01:10:28.946Z,86.14
2018-04-10T01:12:21.902Z,86.14
2018-04-10T01:13:21.842Z,85.85
2018-04-10T01:15:14.657Z,86.04
2018-04-10T01:16:14.616Z,86.04
2018-04-10T01:18:07.642Z,85.38
2018-04-10T01:19:07.543Z,85.66
2018-04-10T01:21:00.536Z,85.47
2018-04-10T01:22:00.590Z,85.57
2018-04-10T01:23:53.868Z,85.47
2018-04-10T01:24:53.766Z,85.38
2018-04-10T01:26:46.711Z,86.04
2018-04-10T01:27:46.686Z,85.57
2018-04-10T01:29:39.510Z,85.75
2018-04-10T01:30:39.507Z,86.04
2018-04-10T01:32:32.631Z,85.75
2018-04-10T01:33:32.561Z,85.57
2018-04-10T01:35:25.538Z,85.75
2018-04-10T01:36:25.481Z,85.85
2018-04-10T01:38:18.436Z,85.66
2018-04-10T01:39:18.388Z,85.85
2018-04-10T01:41:11.563Z,85.75
2018-04-10T01:42:11.328Z,85.75
2018-04-10T01:44:04.296Z,85.75
2018-04-10T01:45:04.242Z,85.75
2018-04-10T01:46:57.181Z,85.75
2018-04-10T01:47:57.148Z,86.43
2018-04-10T01:49:49.984Z,86.04
2018-04-10T01:50:49.930Z,86.43
2018-04-10T01:52:43.024Z,86.23
2018-04-10T01:53:42.997Z,86.23
2018-04-10T01:55:35.934Z,86.04
2018-04-10T01:56:35.900Z,87.00
2018-04-10T01:58:28.828Z,86.90
2018-04-10T01:59:28.788Z,86.43
2018-04-10T02:01:21.915Z,87.00
2018-04-10T02:02:21.837Z,86.80
2018-04-10T02:04:14.814Z,86.38
2018-04-10T02:05:14.838Z,86.67
2018-04-10T02:07:07.630Z,86.76
2018-04-10T02:08:07.557Z,86.76
2018-04-10T02:10:00.522Z,86.76
2018-04-10T02:11:00.455Z,86.57
2018-04-10T02:12:53.370Z,86.47
2018-04-10T02:13:53.238Z,86.47
2018-04-10T02:15:46.075Z,86.57
2018-04-10T02:16:46.014Z,86.57
2018-04-10T02:18:38.839Z,86.76
2018-04-10T02:19:38.803Z,86.38
2018-04-10T02:21:31.775Z,87.15
2018-04-10T02:22:31.733Z,86.86
2018-04-10T02:24:24.550Z,87.34
2018-04-10T02:25:24.504Z,87.39
2018-04-10T02:27:17.503Z,87.29
2018-04-10T02:28:17.422Z,87.48
2018-04-10T02:30:10.757Z,87.39
2018-04-10T02:31:10.707Z,87.39
2018-04-10T02:33:03.735Z,87.58
2018-04-10T02:34:03.648Z,87.29
2018-04-10T02:35:56.489Z,87.48
2018-04-10T02:36:56.424Z,87.48
2018-04-10T02:38:49.264Z,87.39
2018-04-10T02:39:49.193Z,87.68
2018-04-10T02:41:42.175Z,86.91
2018-04-10T02:42:42.125Z,86.82
2018-04-10T02:44:34.940Z,87.10
2018-04-10T02:45:34.904Z,86.72
2018-04-10T02:47:27.856Z,86.82
2018-04-10T02:48:27.799Z,87.10
2018-04-10T02:50:20.612Z,86.72
2018-04-10T02:51:20.577Z,86.72
2018-04-10T02:53:13.558Z,86.63
2018-04-10T02:54:13.510Z,86.43
2018-04-10T02:56:06.944Z,86.34
2018-04-10T02:57:06.422Z,86.91
2018-04-10T02:58:59.431Z,86.43
2018-04-10T02:59:59.355Z,86.82
2018-04-10T03:01:52.317Z,86.43
2018-04-10T03:02:52.311Z,86.34
2018-04-10T03:04:45.085Z,86.63
2018-04-10T03:05:45.048Z,86.72
2018-04-10T03:07:38.370Z,86.72
2018-04-10T03:08:38.321Z,86.72
2018-04-10T03:10:31.260Z,86.72
2018-04-10T03:11:31.221Z,86.63
2018-04-10T03:13:24.400Z,86.43
2018-04-10T03:14:24.289Z,86.72
2018-04-10T03:16:17.280Z,86.82
2018-04-10T03:17:17.245Z,86.82
2018-04-10T03:19:10.237Z,86.82
2018-04-10T03:20:10.196Z,86.82
2018-04-10T03:22:03.131Z,87.48
2018-04-10T03:23:02.979Z,87.54
2018-04-10T03:24:55.940Z,87.15
2018-04-10T03:25:55.893Z,87.15
2018-04-10T03:27:48.850Z,86.96
2018-04-10T03:28:48.796Z,87.06
2018-04-10T03:30:42.009Z,87.44
2018-04-10T03:31:41.836Z,87.25
2018-04-10T03:33:34.812Z,87.15
2018-04-10T03:34:34.746Z,87.25
2018-04-10T03:36:27.705Z,87.73
2018-04-10T03:37:27.671Z,87.82
2018-04-10T03:39:20.925Z,87.44
2018-04-10T03:40:20.750Z,88.01
2018-04-10T03:42:13.698Z,87.54
2018-04-10T03:43:13.663Z,87.63
2018-04-10T03:45:06.645Z,87.82
2018-04-10T03:46:06.653Z,87.82
2018-04-10T03:47:59.383Z,87.63
2018-04-10T03:48:59.347Z,87.25
2018-04-10T03:50:52.196Z,87.63
2018-04-10T03:51:52.140Z,87.73
2018-04-10T03:53:45.001Z,87.82
2018-04-10T03:54:44.920Z,87.92
2018-04-10T03:56:37.755Z,87.73
2018-04-10T03:57:37.708Z,87.92
2018-04-10T03:59:30.537Z,87.92
2018-04-10T04:00:30.483Z,88.01
2018-04-10T04:02:23.415Z,87.06
2018-04-10T04:03:23.379Z,87.35
2018-04-10T04:05:16.467Z,87.15
2018-04-10T04:06:16.328Z,87.06
2018-04-10T04:08:09.320Z,87.44
2018-04-10T04:09:09.286Z,87.44
2018-04-10T04:11:02.270Z,87.44
2018-04-10T04:12:02.196Z,87.25
2018-04-10T04:13:55.418Z,87.44
2018-04-10T04:14:55.305Z,87.35
2018-04-10T04:16:48.635Z,87.44
2018-04-10T04:17:48.581Z,87.44
2018-04-10T04:19:41.452Z,86.68
2018-04-10T04:20:41.382Z,86.68
2018-04-10T04:22:34.345Z,86.87
2018-04-10T04:23:34.307Z,86.96
2018-04-10T04:25:27.271Z,87.15
2018-04-10T04:26:27.278Z,87.44
2018-04-10T04:28:20.478Z,87.15
2018-04-10T04:29:20.348Z,86.96
2018-04-10T04:31:13.324Z,87.82
2018-04-10T04:32:13.268Z,87.82
2018-04-10T04:34:06.219Z,87.54
2018-04-10T04:35:06.193Z,88.30
2018-04-10T04:36:59.082Z,87.82
2018-04-10T04:37:59.021Z,87.82
2018-04-10T04:39:51.938Z,87.63
2018-04-10T04:40:51.790Z,87.82
2018-04-10T04:42:45.116Z,88.20
2018-04-10T04:43:45.077Z,88.20
2018-04-10T04:45:38.505Z,87.92
2018-04-10T04:46:37.910Z,88.30
2018-04-10T04:48:30.886Z,87.82
2018-04-10T04:49:30.845Z,87.82
2018-04-10T04:51:23.828Z,87.82
2018-04-10T04:52:23.841Z,88.01
2018-04-10T04:54:16.911Z,88.59
2018-04-10T04:55:16.866Z,88.68
2018-04-10T04:57:09.811Z,88.59
2018-04-10T04:58:09.753Z,88.59
2018-04-10T05:00:02.567Z,88.59
2018-04-10T05:01:02.534Z,88.78
2018-04-10T05:02:55.483Z,88.59
2018-04-10T05:03:55.451Z,88.40
2018-04-10T05:05:48.512Z,88.49
2018-04-10T05:06:48.472Z,88.59
2018-04-10T05:08:41.454Z,88.68
2018-04-10T05:09:41.409Z,88.83
2018-04-10T05:11:34.352Z,88.87
2018-04-10T05:12:34.314Z,88.87
2018-04-10T05:14:27.132Z,88.73
2018-04-10T05:15:27.133Z,88.26
2018-04-10T05:17:20.528Z,88.64
2018-04-10T05:18:19.860Z,88.64
2018-04-10T05:20:12.679Z,88.92
2018-04-10T05:21:12.631Z,88.92
2018-04-10T05:23:05.609Z,89.12
2018-04-10T05:24:05.653Z,89.31
2018-04-10T05:25:58.868Z,89.25
2018-04-10T05:26:58.822Z,89.21
2018-04-10T05:28:51.784Z,89.45
2018-04-10T05:29:51.733Z,89.35
2018-04-10T05:31:44.718Z,88.87
2018-04-10T05:32:44.658Z,89.83
2018-04-10T05:34:37.528Z,89.16
2018-04-10T05:35:37.452Z,89.25
2018-04-10T05:37:30.354Z,88.97
2018-04-10T05:38:30.235Z,89.16
2018-04-10T05:40:23.206Z,89.54
2018-04-10T05:41:23.164Z,89.16
2018-04-10T05:43:16.600Z,89.16
2018-04-10T05:44:16.444Z,88.78
2018-04-10T05:46:09.400Z,88.87
2018-04-10T05:47:09.368Z,88.40
2018-04-10T05:49:02.356Z,88.30
2018-04-10T05:50:02.313Z,88.20
2018-04-10T05:51:55.215Z,87.63
2018-04-10T05:52:55.142Z,87.82
2018-04-10T05:54:48.109Z,87.44
2018-04-10T05:55:48.059Z,87.44
2018-04-10T05:57:41.027Z,87.73
2018-04-10T05:58:41.093Z,87.92
2018-04-10T06:00:34.291Z,88.15
2018-04-10T06:01:34.067Z,88.15
2018-04-10T06:03:27.057Z,87.48
2018-04-10T06:04:27.010Z,87.58
2018-04-10T06:06:19.978Z,87.10
2018-04-10T06:07:19.928Z,86.72
2018-04-10T06:09:13.107Z,86.63
2018-04-10T06:10:13.080Z,86.34
2018-04-10T06:12:05.938Z,86.43
2018-04-10T06:13:05.884Z,86.43
2018-04-10T06:14:58.701Z,86.34
2018-04-10T06:15:58.653Z,86.15
2018-04-10T06:17:51.614Z,86.38
2018-04-10T06:18:51.565Z,86.38
2018-04-10T06:20:44.414Z,85.52
2018-04-10T06:21:44.355Z,85.52
2018-04-10T06:23:37.344Z,84.76
2018-04-10T06:24:37.292Z,85.14
2018-04-10T06:26:30.308Z,85.14
2018-04-10T06:27:30.339Z,84.66
2018-04-10T06:29:23.444Z,84.76
2018-04-10T06:30:23.379Z,84.66
2018-04-10T06:32:16.354Z,83.65
2018-04-10T06:33:16.287Z,83.84
2018-04-10T06:35:09.299Z,83.84
2018-04-10T06:36:09.213Z,83.65
2018-04-10T06:38:02.124Z,82.89
2018-04-10T06:39:02.112Z,82.98
2018-04-10T06:40:55.077Z,82.70
2018-04-10T06:41:55.028Z,82.89
2018-04-10T06:43:47.997Z,82.98
2018-04-10T06:44:47.989Z,82.22
2018-04-10T06:46:41.200Z,82.41
2018-04-10T06:47:41.100Z,82.41
2018-04-10T06:49:33.899Z,82.54
2018-04-10T06:50:33.866Z,81.68
2018-04-10T06:52:26.860Z,81.68
2018-04-10T06:53:26.794Z,81.30
2018-04-10T06:55:20.046Z,81.21
2018-04-10T06:56:19.888Z,81.21
2018-04-10T06:58:12.835Z,81.21
2018-04-10T06:59:12.786Z,80.73
2018-04-10T07:01:05.839Z,80.54
2018-04-10T07:02:05.797Z,80.73
2018-04-10T07:03:58.903Z,79.96
2018-04-10T07:04:58.870Z,80.10
2018-04-10T07:06:51.825Z,80.10
2018-04-10T07:07:51.816Z,79.91
2018-04-10T07:09:44.606Z,78.95
2018-04-10T07:10:44.571Z,79.24
2018-04-10T07:12:37.419Z,79.24
2018-04-10T07:13:37.350Z,78.66
2018-04-10T07:15:30.341Z,78.47
2018-04-10T07:16:30.302Z,77.90
2018-04-10T07:18:23.333Z,78.61
2018-04-10T07:19:23.408Z,78.99
2018-04-10T07:21:16.223Z,78.51
2018-04-10T07:22:16.199Z,78.03
2018-04-10T07:24:09.029Z,77.94
2018-04-10T07:25:08.980Z,77.55
2018-04-10T07:27:01.941Z,77.26
2018-04-10T07:28:01.920Z,77.08
2018-04-10T07:29:54.770Z,77.08
2018-04-10T07:30:54.708Z,76.79
2018-04-10T07:32:47.697Z,77.21
2018-04-10T07:33:47.641Z,75.96
2018-04-10T07:35:40.462Z,75.96
2018-04-10T07:36:40.451Z,75.68
2018-04-10T07:38:33.441Z,75.77
2018-04-10T07:39:33.381Z,77.21
2018-04-10T07:41:26.203Z,75.39
2018-04-10T07:42:26.170Z,75.39
2018-04-10T07:44:19.150Z,75.10
2018-04-10T07:45:19.103Z,74.52
2018-04-10T07:47:12.222Z,75.10
2018-04-10T07:48:12.142Z,74.82
2018-04-10T07:50:05.493Z,74.91
2018-04-10T07:51:05.420Z,75.10
2018-04-10T07:52:58.417Z,74.72
2018-04-10T07:53:58.385Z,74.15
2018-04-10T07:55:51.364Z,75.20
2018-04-10T07:56:51.322Z,74.24
2018-04-10T07:58:44.656Z,73.76
2018-04-10T07:59:44.536Z,73.76
2018-04-10T08:01:37.511Z,74.05
2018-04-10T08:02:37.479Z,74.43
2018-04-10T08:04:30.910Z,74.33
2018-04-10T08:05:30.773Z,74.24
2018-04-10T08:07:23.743Z,73.86
2018-04-10T08:08:23.706Z,73.13
2018-04-10T08:10:16.554Z,73.22
2018-04-10T08:11:16.539Z,73.32
2018-04-10T08:13:09.701Z,73.80
2018-04-10T08:14:09.642Z,73.70
2018-04-10T08:16:02.602Z,73.03
2018-04-10T08:17:02.533Z,73.13
2018-04-10T08:18:55.485Z,72.94
2018-04-10T08:19:55.464Z,72.17
2018-04-10T08:21:48.367Z,72.20
2018-04-10T08:22:48.320Z,72.01
2018-04-10T08:24:41.326Z,71.25
2018-04-10T08:25:41.267Z,71.53
2018-04-10T08:27:34.251Z,71.92
2018-04-10T08:28:34.259Z,71.25
2018-04-10T08:30:27.046Z,70.29
2018-04-10T08:31:26.992Z,70.19
2018-04-10T08:33:19.813Z,71.63
2018-04-10T08:34:19.776Z,71.92
2018-04-10T08:36:13.857Z,71.53
2018-04-10T08:37:13.786Z,71.44
2018-04-10T08:39:06.736Z,71.53
2018-04-10T08:40:06.748Z,71.63
2018-04-10T08:41:59.957Z,71.15
2018-04-10T08:42:59.905Z,71.44
2018-04-10T08:44:52.871Z,71.05
2018-04-10T08:45:52.864Z,71.05
2018-04-10T08:47:46.100Z,70.57
2018-04-10T08:48:45.919Z,70.48
2018-04-10T08:50:38.881Z,70.57
2018-04-10T08:51:38.839Z,69.90
2018-04-10T08:53:31.810Z,69.90
2018-04-10T08:54:31.817Z,69.71
2018-04-10T08:56:25.009Z,71.28
2018-04-10T08:57:24.884Z,70.90
2018-04-10T08:59:17.836Z,70.86
2018-04-10T09:00:17.803Z,70.61
2018-04-10T09:02:10.833Z,69.65
2018-04-10T09:03:10.734Z,69.23
2018-04-10T09:05:03.607Z,69.65
2018-04-10T09:06:03.575Z,69.74
2018-04-10T09:07:56.533Z,70.86
2018-04-10T09:08:56.481Z,71.95
2018-04-10T09:10:49.422Z,72.01
2018-04-10T09:11:49.397Z,71.72
2018-04-10T09:13:42.708Z,71.92
2018-04-10T09:14:42.487Z,71.92
2018-04-10T09:16:35.441Z,73.07
2018-04-10T09:17:35.403Z,72.49
2018-04-10T09:19:28.222Z,73.07
2018-04-10T09:20:28.192Z,74.12
2018-04-10T09:22:21.171Z,74.69
2018-04-10T09:23:21.137Z,74.22
2018-04-10T09:25:14.027Z,74.69
2018-04-10T09:26:13.992Z,74.51
2018-04-10T09:28:07.304Z,74.69
2018-04-10T09:29:07.273Z,75.43
2018-04-10T09:31:00.067Z,76.19
2018-04-10T09:32:00.033Z,76.71
2018-04-10T09:33:52.986Z,77.48
2018-04-10T09:34:52.838Z,76.39
2018-04-10T09:36:45.808Z,76.29
2018-04-10T09:37:45.772Z,76.81
2018-04-10T09:39:38.602Z,77.00
2018-04-10T09:40:38.551Z,77.48
2018-04-10T09:42:31.507Z,77.95
2018-04-10T09:43:31.467Z,77.38
2018-04-10T09:45:24.354Z,76.90
2018-04-10T09:46:24.292Z,75.95
2018-04-10T09:48:17.272Z,76.14
2018-04-10T09:49:17.209Z,76.32
2018-04-10T09:51:10.178Z,75.12
2018-04-10T09:52:10.218Z,74.44
2018-04-10T09:54:03.152Z,74.64
2018-04-10T09:55:03.101Z,73.43
2018-04-10T09:56:56.032Z,71.31
2018-04-10T09:57:56.001Z,70.84
2018-04-10T09:59:48.999Z,70.87
2018-04-10T10:00:48.960Z,70.58
2018-04-10T10:02:41.761Z,67.90
2018-04-10T10:03:41.740Z,67.45
2018-04-10T10:05:34.702Z,68.41
2018-04-10T10:06:34.606Z,66.77
2018-04-10T10:08:27.589Z,66.04
2018-04-10T10:09:27.513Z,65.14
2018-04-10T10:11:20.534Z,64.76
2018-04-10T10:12:20.461Z,63.92
2018-04-10T10:14:13.299Z,64.79
2018-04-10T10:15:13.235Z,64.22
2018-04-10T10:17:06.094Z,63.95
2018-04-10T10:18:06.046Z,63.73
2018-04-10T10:19:59.037Z,62.99
2018-04-10T10:20:58.849Z,64.43
2018-04-10T10:22:51.814Z,62.23
2018-04-10T10:23:51.772Z,62.99
2018-04-10T10:25:44.753Z,60.14
2018-04-10T10:26:44.710Z,59.37
2018-04-10T10:28:37.518Z,58.60
2018-04-10T10:29:37.486Z,60.24
2018-04-10T10:31:30.509Z,59.24
2018-04-10T10:32:30.453Z,60.04
2018-04-10T10:34:23.421Z,58.79
2018-04-10T10:35:23.392Z,58.79
2018-04-10T10:37:16.745Z,58.02
2018-04-10T10:38:16.662Z,57.15
2018-04-10T10:40:09.628Z,56.00
2018-04-10T10:41:09.621Z,57.35
2018-04-10T10:43:02.864Z,58.31
2018-04-10T10:44:02.712Z,57.25
2018-04-10T10:45:55.687Z,56.29
2018-04-10T10:46:55.633Z,56.58
2018-04-10T10:48:48.633Z,58.34
2018-04-10T10:49:48.609Z,58.24
2018-04-10T10:51:41.465Z,56.96
2018-04-10T10:52:41.432Z,57.35
2018-04-10T10:54:34.421Z,59.44
2018-04-10T10:55:34.372Z,58.18
2018-04-10T10:57:27.314Z,60.24
2018-04-10T10:58:27.291Z,57.80
2018-04-10T11:00:20.110Z,59.05
2018-04-10T11:01:20.103Z,59.72
2018-04-10T11:03:12.943Z,58.09
2018-04-10T11:04:12.891Z,59.15
2018-04-10T11:06:05.910Z,58.12
2018-04-10T11:07:05.726Z,57.73
2018-04-10T11:08:58.685Z,57.35
2018-04-10T11:09:58.640Z,56.10
2018-04-10T11:11:51.644Z,57.70
2018-04-10T11:12:51.591Z,58.98
2018-04-10T11:14:44.393Z,56.38
2018-04-10T11:15:44.369Z,55.81
2018-04-10T11:17:37.404Z,55.71
2018-04-10T11:18:37.321Z,55.43
2018-04-10T11:20:30.143Z,55.81
2018-04-10T11:21:30.114Z,55.43
2018-04-10T11:23:23.121Z,54.78
2018-04-10T11:24:23.035Z,53.62
2018-04-10T11:26:15.868Z,53.14
2018-04-10T11:27:15.846Z,53.21
2018-04-10T11:29:08.877Z,53.86
2018-04-10T11:30:08.797Z,54.75
2018-04-10T11:32:01.613Z,53.09
2018-04-10T11:33:01.571Z,53.45
2018-04-10T11:34:54.548Z,54.02
2018-04-10T11:35:54.500Z,52.97
2018-04-10T11:37:47.736Z,54.02
2018-04-10T11:38:47.662Z,53.90
2018-04-10T11:40:40.630Z,55.27
2018-04-10T11:41:40.558Z,55.27
2018-04-10T11:43:33.537Z,54.12
2018-04-10T11:44:33.479Z,55.01
2018-04-10T11:46:26.550Z,55.30
2018-04-10T11:47:26.507Z,54.17
2018-04-10T11:49:19.517Z,52.54
2018-04-10T11:50:19.579Z,53.59
2018-04-10T11:52:12.438Z,51.64
2018-04-10T11:53:12.379Z,50.97
2018-04-10T11:55:05.437Z,51.45
2018-04-10T11:56:05.361Z,52.51
2018-04-10T11:57:58.334Z,52.89
2018-04-10T11:58:58.304Z,54.27
2018-04-10T12:00:51.257Z,55.62
2018-04-10T12:01:51.224Z,55.33
2018-04-10T12:03:44.336Z,56.77
2018-04-10T12:04:44.291Z,55.43
2018-04-10T12:06:37.276Z,52.15
2018-04-10T12:07:37.283Z,52.34
2018-04-10T12:09:30.061Z,52.63
2018-04-10T12:10:30.008Z,52.73
2018-04-10T12:12:22.956Z,52.06
2018-04-10T12:13:22.877Z,52.99
2018-04-10T12:15:15.873Z,52.42
2018-04-10T12:16:15.828Z,53.19
2018-04-10T12:18:09.243Z,54.43
2018-04-10T12:19:09.128Z,54.34
2018-04-10T12:21:02.111Z,54.24
2018-04-10T12:22:02.034Z,53.83
2018-04-10T12:23:54.973Z,53.92
2018-04-10T12:24:55.021Z,54.31
2018-04-10T12:26:48.293Z,55.34
2018-04-10T12:27:48.252Z,55.15
2018-04-10T12:29:41.579Z,55.24
2018-04-10T12:30:41.559Z,56.21
2018-04-10T12:32:34.502Z,56.59
2018-04-10T12:33:34.457Z,57.65
2018-04-10T12:35:27.416Z,56.30
2018-04-10T12:36:27.402Z,57.93
2018-04-10T12:38:20.685Z,58.13
2018-04-10T12:39:20.487Z,58.32
2018-04-10T12:41:13.642Z,57.00
2018-04-10T12:42:13.683Z,57.10
2018-04-10T12:44:06.698Z,56.43
2018-04-10T12:45:06.660Z,56.65
2018-04-10T12:46:59.641Z,56.93
2018-04-10T12:47:59.613Z,56.93
2018-04-10T12:49:52.446Z,55.40
2018-04-10T12:50:52.384Z,56.36
2018-04-10T12:52:45.385Z,56.96
2018-04-10T12:53:45.313Z,57.73
2018-04-10T12:55:38.401Z,55.26
2018-04-10T12:56:38.264Z,55.45
2018-04-10T12:58:31.242Z,53.84
2018-04-10T12:59:31.198Z,53.27
2018-04-10T13:01:24.167Z,52.49
2018-04-10T13:02:24.139Z,51.62
2018-04-10T13:04:17.187Z,52.30
2018-04-10T13:05:17.008Z,51.84
2018-04-10T13:07:09.981Z,51.84
2018-04-10T13:08:09.956Z,50.40
2018-04-10T13:10:02.787Z,50.11
2018-04-10T13:11:02.739Z,50.62
2018-04-10T13:12:55.862Z,49.37
2018-04-10T13:13:55.861Z,49.24
2018-04-10T13:15:48.797Z,49.43
2018-04-10T13:16:48.741Z,50.09
2018-04-10T13:18:41.591Z,49.82
2018-04-10T13:19:41.562Z,50.30
2018-04-10T13:21:34.513Z,49.19
2018-04-10T13:22:34.475Z,48.30
2018-04-10T13:24:27.331Z,48.61
2018-04-10T13:25:27.271Z,47.36
2018-04-10T13:27:20.276Z,47.87
2018-04-10T13:28:20.229Z,46.51
2018-04-10T13:30:13.037Z,48.37
2018-04-10T13:31:13.004Z,47.72
2018-04-10T13:33:05.975Z,44.84
2018-04-10T13:34:05.946Z,45.45
2018-04-10T13:35:58.971Z,43.51
2018-04-10T13:36:58.728Z,43.15
2018-04-10T13:38:51.708Z,42.37
2018-04-10T13:39:51.662Z,41.56
2018-04-10T13:41:44.640Z,43.64
2018-04-10T13:42:44.650Z,43.93
2018-04-10T13:44:37.913Z,43.47
2018-04-10T13:45:37.757Z,44.34
2018-04-10T13:47:30.769Z,45.91
2018-04-10T13:48:30.756Z,43.06
2018-04-10T13:50:23.573Z,44.66
2018-04-10T13:51:23.592Z,44.97
2018-04-10T13:53:16.785Z,45.28
2018-04-10T13:54:16.641Z,43.64
2018-04-10T13:56:09.606Z,44.22
2018-04-10T13:57:09.571Z,44.82
2018-04-10T13:59:02.544Z,44.65
2018-04-10T14:00:02.512Z,44.36
2018-04-10T14:01:55.562Z,44.36
2018-04-10T14:02:55.390Z,42.93
2018-04-10T14:04:48.378Z,42.16
2018-04-10T14:05:48.351Z,41.29
2018-04-10T14:07:41.278Z,40.32
2018-04-10T14:08:41.295Z,39.47
2018-04-10T14:10:34.103Z,39.09
2018-04-10T14:11:34.038Z,40.71
2018-04-10T14:13:27.029Z,41.60
2018-04-10T14:14:26.926Z,41.99
2018-04-10T14:16:19.918Z,40.36
2018-04-10T14:17:19.888Z,40.46
2018-04-10T14:19:12.842Z,39.51
2018-04-10T14:20:12.822Z,39.22
2018-04-10T14:22:05.668Z,38.73
2018-04-10T14:23:05.636Z,37.63
2018-04-10T14:24:58.641Z,38.97
2018-04-10T14:25:58.596Z,39.62
2018-04-10T14:27:51.567Z,40.50
2018-04-10T14:28:51.547Z,39.55
2018-04-10T14:30:45.979Z,39.16
2018-04-10T14:31:44.674Z,38.97
2018-04-10T14:33:37.715Z,40.30
2018-04-10T14:34:37.704Z,39.92
2018-04-10T14:36:30.692Z,40.57
2018-04-10T14:37:30.632Z,40.57
2018-04-10T14:39:23.686Z,43.59
2018-04-10T14:40:23.655Z,41.66
2018-04-10T14:42:16.660Z,40.88
2018-04-10T14:43:16.627Z,41.66
2018-04-10T14:45:09.758Z,41.27
2018-04-10T14:46:09.699Z,40.50
2018-04-10T14:48:02.705Z,42.04
2018-04-10T14:49:02.649Z,41.75
2018-04-10T14:50:55.503Z,41.75
2018-04-10T14:51:55.464Z,43.10
2018-04-10T14:53:48.753Z,41.56
2018-04-10T14:54:48.661Z,41.36
2018-04-10T14:56:41.666Z,40.57
2018-04-10T14:57:41.595Z,41.63
2018-04-10T14:59:34.434Z,43.35
2018-04-10T15:00:34.401Z,44.80
2018-04-10T15:02:27.637Z,44.78
2018-04-10T15:03:27.576Z,44.87
2018-04-10T15:05:20.514Z,45.86
2018-04-10T15:06:20.521Z,44.90
2018-04-10T15:08:13.500Z,45.57
2018-04-10T15:09:13.433Z,46.54
2018-04-10T15:11:06.258Z,45.28
2018-04-10T15:12:06.243Z,44.80
2018-04-10T15:13:59.225Z,44.49
2018-04-10T15:14:59.182Z,45.45
2018-04-10T15:16:52.159Z,45.17
2018-04-10T15:17:52.139Z,45.92
2018-04-10T15:19:45.101Z,46.33
2018-04-10T15:20:45.050Z,46.30
2018-04-10T15:22:38.046Z,47.65
2018-04-10T15:23:37.990Z,48.30
2018-04-10T15:25:30.961Z,48.28
2018-04-10T15:26:30.937Z,49.15
2018-04-10T15:28:24.090Z,51.43
2018-04-10T15:29:24.030Z,51.62
2018-04-10T15:31:17.028Z,51.43
2018-04-10T15:32:16.990Z,51.79
2018-04-10T15:34:10.130Z,52.56
2018-04-10T15:35:09.916Z,53.14
2018-04-10T15:37:02.749Z,53.81
2018-04-10T15:38:02.707Z,53.23
2018-04-10T15:39:55.701Z,54.46
2018-04-10T15:40:55.502Z,55.04
2018-04-10T15:42:48.497Z,55.04
2018-04-10T15:43:48.450Z,55.33
2018-04-10T15:45:41.427Z,55.81
2018-04-10T15:46:41.393Z,55.52
2018-04-10T15:48:34.247Z,55.49
2018-04-10T15:49:34.170Z,56.43
2018-04-10T15:51:27.175Z,57.87
2018-04-10T15:52:26.986Z,57.97
2018-04-10T15:54:20.014Z,57.48
2018-04-10T15:55:19.949Z,57.48
2018-04-10T15:57:12.777Z,57.29
2018-04-10T15:58:12.771Z,57.00
2018-04-10T16:00:05.974Z,57.58
2018-04-10T16:01:05.885Z,57.77
2018-04-10T16:02:58.847Z,58.54
2018-04-10T16:03:58.818Z,58.70
2018-04-10T16:05:51.859Z,58.70
2018-04-10T16:06:51.770Z,59.09
2018-04-10T16:08:44.597Z,59.47
2018-04-10T16:09:44.606Z,60.05
2018-04-10T16:11:37.690Z,60.05
2018-04-10T16:12:37.650Z,60.43
2018-04-10T16:14:30.524Z,59.57
2018-04-10T16:15:30.466Z,60.02
2018-04-10T16:17:23.689Z,59.76
2018-04-10T16:18:23.574Z,59.34
2018-04-10T16:20:16.434Z,59.73
2018-04-10T16:21:16.358Z,59.64
2018-04-10T16:23:09.371Z,60.50
2018-04-10T16:24:09.315Z,60.69
2018-04-10T16:26:02.555Z,60.69
2018-04-10T16:27:02.417Z,60.69
2018-04-10T16:28:55.230Z,61.55
2018-04-10T16:29:55.208Z,62.04
2018-04-10T16:31:48.201Z,62.99
2018-04-10T16:32:48.145Z,63.64
2018-04-10T16:34:41.355Z,63.73
2018-04-10T16:35:41.332Z,63.73
2018-04-10T16:37:34.339Z,63.64
2018-04-10T16:38:34.268Z,64.69
2018-04-10T16:40:27.085Z,65.94
2018-04-10T16:41:27.065Z,66.42
2018-04-10T16:43:20.283Z,67.38
2018-04-10T16:44:20.231Z,66.90
2018-04-10T16:46:13.220Z,66.23
2018-04-10T16:47:13.281Z,65.27
2018-04-10T16:49:06.517Z,65.17
2018-04-10T16:50:06.352Z,65.56
2018-04-10T16:51:59.343Z,65.94
2018-04-10T16:52:59.313Z,66.61
2018-04-10T16:54:52.650Z,66.86
2018-04-10T16:55:52.621Z,67.25
2018-04-10T16:57:45.630Z,67.25
2018-04-10T16:58:45.577Z,67.16
2018-04-10T17:00:38.397Z,66.86
2018-04-10T17:01:38.347Z,66.67
2018-04-10T17:03:31.641Z,66.19
2018-04-10T17:04:31.478Z,66.39
2018-04-10T17:06:24.476Z,66.77
2018-04-10T17:07:24.445Z,66.39
2018-04-10T17:09:17.250Z,66.58
2018-04-10T17:10:17.286Z,66.67
2018-04-10T17:12:10.436Z,67.35
2018-04-10T17:13:10.347Z,67.99
2018-04-10T17:15:03.347Z,67.89
2018-04-10T17:16:03.305Z,68.27
2018-04-10T17:17:56.329Z,67.02
2018-04-10T17:18:56.264Z,66.74
2018-04-10T17:20:49.107Z,64.63
2018-04-10T17:21:49.065Z,63.67
2018-04-10T17:23:42.060Z,63.19
2018-04-10T17:24:41.990Z,62.71
2018-04-10T17:26:35.335Z,62.52
2018-04-10T17:27:35.292Z,62.90
2018-04-10T17:29:28.201Z,62.62
2018-04-10T17:30:28.076Z,62.71
2018-04-10T17:32:20.900Z,63.48
2018-04-10T17:33:20.853Z,63.73
2018-04-10T17:35:13.853Z,65.26
2018-04-10T17:36:13.812Z,65.75
2018-04-10T17:38:06.629Z,66.67
2018-04-10T17:39:06.602Z,67.44
2018-04-10T17:40:59.393Z,68.40
2018-04-10T17:41:59.361Z,68.40
2018-04-10T17:43:52.391Z,69.07
2018-04-10T17:44:52.339Z,69.74
2018-04-10T17:46:45.322Z,70.56
2018-04-10T17:47:45.280Z,71.81
2018-04-10T17:49:38.149Z,72.19
2018-04-10T17:50:38.066Z,72.86
2018-04-10T17:52:30.910Z,73.24
2018-04-10T17:53:30.874Z,73.24
2018-04-10T17:55:23.867Z,73.91
2018-04-10T17:56:23.838Z,73.44
2018-04-10T17:58:16.785Z,73.72
2018-04-10T17:59:16.826Z,73.91
2018-04-10T18:01:09.949Z,75.64
2018-04-10T18:02:09.876Z,77.08
2018-04-10T18:04:02.809Z,81.54
2018-04-10T18:05:02.820Z,83.36
2018-04-10T18:06:55.782Z,86.94
2018-04-10T18:07:55.743Z,88.00
2018-04-10T18:09:48.827Z,91.02
2018-04-10T18:10:48.631Z,91.30
2018-04-10T18:12:41.647Z,93.55
2018-04-10T18:13:41.556Z,94.41
2018-04-10T18:15:34.622Z,96.42
2018-04-10T18:16:34.582Z,97.37
2018-04-10T18:18:27.456Z,97.61
2018-04-10T18:19:27.411Z,98.08
2018-04-10T18:21:20.428Z,98.75
2018-04-10T18:22:20.383Z,99.23
2018-04-10T18:24:13.344Z,99.99
2018-04-10T18:25:13.310Z,99.99
2018-04-10T18:27:06.554Z,99.99
2018-04-10T18:28:06.453Z,99.99
2018-04-10T18:29:59.264Z,99.99
2018-04-10T18:30:59.208Z,99.99
2018-04-10T18:32:52.235Z,99.99